sensor_id;sensor_type;location;lat;lon;timestamp;P1;durP1;ratioP1;P2;durP2;ratioP2
68216;SDS011;55037;52.354;4.992;2023-07-02T00:00:21;12.60;;;4.07;;
68216;SDS011;55037;52.354;4.992;2023-07-02T00:02:49;10.25;;;4.22;;
68216;SDS011;55037;52.354;4.992;2023-07-02T00:05:17;11.17;;;4.10;;
68216;SDS011;55037;52.354;4.992;2023-07-02T00:07:45;12.63;;;4.43;;
68216;SDS011;55037;52.354;4.992;2023-07-02T00:10:13;14.57;;;5.22;;
68216;SDS011;55037;52.354;4.992;2023-07-02T00:12:40;15.43;;;5.05;;
68216;SDS011;55037;52.354;4.992;2023-07-02T00:15:08;14.95;;;4.47;;
68216;SDS011;55037;52.354;4.992;2023-07-02T00:17:35;13.53;;;4.13;;
68216;SDS011;55037;52.354;4.992;2023-07-02T00:20:07;11.88;;;3.92;;
68216;SDS011;55037;52.354;4.992;2023-07-02T00:22:41;16.88;;;5.15;;
68216;SDS011;55037;52.354;4.992;2023-07-02T00:25:12;14.90;;;3.50;;
68216;SDS011;55037;52.354;4.992;2023-07-02T00:27:41;14.00;;;4.50;;
68216;SDS011;55037;52.354;4.992;2023-07-02T00:30:09;11.13;;;3.67;;
68216;SDS011;55037;52.354;4.992;2023-07-02T00:32:37;13.35;;;4.43;;
68216;SDS011;55037;52.354;4.992;2023-07-02T00:35:05;11.77;;;4.22;;
68216;SDS011;55037;52.354;4.992;2023-07-02T00:37:34;16.02;;;4.47;;
68216;SDS011;55037;52.354;4.992;2023-07-02T00:40:02;17.17;;;4.38;;
68216;SDS011;55037;52.354;4.992;2023-07-02T00:42:30;11.77;;;4.73;;
68216;SDS011;55037;52.354;4.992;2023-07-02T00:44:58;14.52;;;4.18;;
68216;SDS011;55037;52.354;4.992;2023-07-02T00:47:33;13.75;;;3.78;;
68216;SDS011;55037;52.354;4.992;2023-07-02T00:50:02;11.93;;;3.85;;
68216;SDS011;55037;52.354;4.992;2023-07-02T00:52:29;13.73;;;4.65;;
68216;SDS011;55037;52.354;4.992;2023-07-02T00:54:57;17.30;;;5.27;;
68216;SDS011;55037;52.354;4.992;2023-07-02T00:57:25;15.43;;;4.95;;
68216;SDS011;55037;52.354;4.992;2023-07-02T00:59:57;11.35;;;4.50;;
68216;SDS011;55037;52.354;4.992;2023-07-02T01:02:27;11.10;;;4.03;;
68216;SDS011;55037;52.354;4.992;2023-07-02T01:04:57;17.80;;;4.15;;
68216;SDS011;55037;52.354;4.992;2023-07-02T01:07:27;14.80;;;4.53;;
68216;SDS011;55037;52.354;4.992;2023-07-02T01:09:55;18.85;;;5.28;;
68216;SDS011;55037;52.354;4.992;2023-07-02T01:12:23;21.23;;;5.07;;
68216;SDS011;55037;52.354;4.992;2023-07-02T01:14:53;19.30;;;4.90;;
68216;SDS011;55037;52.354;4.992;2023-07-02T01:17:26;13.95;;;4.97;;
68216;SDS011;55037;52.354;4.992;2023-07-02T01:19:55;17.37;;;4.47;;
68216;SDS011;55037;52.354;4.992;2023-07-02T01:22:27;17.40;;;5.32;;
68216;SDS011;55037;52.354;4.992;2023-07-02T01:24:56;18.20;;;5.18;;
68216;SDS011;55037;52.354;4.992;2023-07-02T01:27:24;19.88;;;5.03;;
68216;SDS011;55037;52.354;4.992;2023-07-02T01:29:56;15.52;;;4.07;;
68216;SDS011;55037;52.354;4.992;2023-07-02T01:32:24;16.10;;;5.17;;
68216;SDS011;55037;52.354;4.992;2023-07-02T01:34:52;14.65;;;4.72;;
68216;SDS011;55037;52.354;4.992;2023-07-02T01:37:20;17.67;;;5.68;;
68216;SDS011;55037;52.354;4.992;2023-07-02T01:39:48;15.48;;;5.22;;
68216;SDS011;55037;52.354;4.992;2023-07-02T01:42:17;14.38;;;5.03;;
68216;SDS011;55037;52.354;4.992;2023-07-02T01:44:48;21.73;;;5.40;;
68216;SDS011;55037;52.354;4.992;2023-07-02T01:47:17;15.40;;;4.88;;
68216;SDS011;55037;52.354;4.992;2023-07-02T01:49:47;16.38;;;4.75;;
68216;SDS011;55037;52.354;4.992;2023-07-02T01:52:16;15.10;;;4.18;;
68216;SDS011;55037;52.354;4.992;2023-07-02T01:54:46;16.42;;;5.43;;
68216;SDS011;55037;52.354;4.992;2023-07-02T01:57:14;18.07;;;4.57;;
68216;SDS011;55037;52.354;4.992;2023-07-02T01:59:42;20.08;;;4.90;;
68216;SDS011;55037;52.354;4.992;2023-07-02T02:02:10;12.80;;;4.72;;
68216;SDS011;55037;52.354;4.992;2023-07-02T02:04:37;11.07;;;4.30;;
68216;SDS011;55037;52.354;4.992;2023-07-02T02:07:05;15.35;;;4.30;;
68216;SDS011;55037;52.354;4.992;2023-07-02T02:09:33;23.17;;;5.47;;
68216;SDS011;55037;52.354;4.992;2023-07-02T02:12:00;15.38;;;4.72;;
68216;SDS011;55037;52.354;4.992;2023-07-02T02:14:28;10.95;;;4.07;;
68216;SDS011;55037;52.354;4.992;2023-07-02T02:16:57;17.88;;;5.03;;
68216;SDS011;55037;52.354;4.992;2023-07-02T02:19:25;15.02;;;5.07;;
68216;SDS011;55037;52.354;4.992;2023-07-02T02:21:53;12.83;;;4.03;;
68216;SDS011;55037;52.354;4.992;2023-07-02T02:24:20;17.23;;;4.82;;
68216;SDS011;55037;52.354;4.992;2023-07-02T02:26:48;15.77;;;4.05;;
68216;SDS011;55037;52.354;4.992;2023-07-02T02:29:16;22.42;;;5.53;;
68216;SDS011;55037;52.354;4.992;2023-07-02T02:31:44;14.52;;;4.47;;
68216;SDS011;55037;52.354;4.992;2023-07-02T02:34:12;17.93;;;5.50;;
68216;SDS011;55037;52.354;4.992;2023-07-02T02:36:40;19.23;;;4.43;;
68216;SDS011;55037;52.354;4.992;2023-07-02T02:39:08;17.00;;;4.75;;
68216;SDS011;55037;52.354;4.992;2023-07-02T02:41:36;14.98;;;4.57;;
68216;SDS011;55037;52.354;4.992;2023-07-02T02:44:04;13.30;;;4.78;;
68216;SDS011;55037;52.354;4.992;2023-07-02T02:46:33;16.27;;;4.70;;
68216;SDS011;55037;52.354;4.992;2023-07-02T02:49:01;12.20;;;4.22;;
68216;SDS011;55037;52.354;4.992;2023-07-02T02:51:28;14.60;;;5.05;;
68216;SDS011;55037;52.354;4.992;2023-07-02T02:53:56;15.68;;;4.40;;
68216;SDS011;55037;52.354;4.992;2023-07-02T02:56:23;20.67;;;5.57;;
68216;SDS011;55037;52.354;4.992;2023-07-02T02:58:51;18.17;;;5.67;;
68216;SDS011;55037;52.354;4.992;2023-07-02T03:01:18;17.50;;;4.93;;
68216;SDS011;55037;52.354;4.992;2023-07-02T03:03:46;16.08;;;5.03;;
68216;SDS011;55037;52.354;4.992;2023-07-02T03:06:14;14.25;;;4.80;;
68216;SDS011;55037;52.354;4.992;2023-07-02T03:08:42;14.45;;;4.10;;
68216;SDS011;55037;52.354;4.992;2023-07-02T03:11:10;13.37;;;4.80;;
68216;SDS011;55037;52.354;4.992;2023-07-02T03:13:38;15.85;;;5.03;;
68216;SDS011;55037;52.354;4.992;2023-07-02T03:16:06;19.40;;;5.43;;
68216;SDS011;55037;52.354;4.992;2023-07-02T03:18:34;23.45;;;5.20;;
68216;SDS011;55037;52.354;4.992;2023-07-02T03:21:02;17.63;;;5.78;;
68216;SDS011;55037;52.354;4.992;2023-07-02T03:23:30;21.33;;;5.33;;
68216;SDS011;55037;52.354;4.992;2023-07-02T03:25:57;14.48;;;4.93;;
68216;SDS011;55037;52.354;4.992;2023-07-02T03:28:25;15.85;;;4.50;;
68216;SDS011;55037;52.354;4.992;2023-07-02T03:30:53;18.63;;;5.85;;
68216;SDS011;55037;52.354;4.992;2023-07-02T03:33:20;17.73;;;5.35;;
68216;SDS011;55037;52.354;4.992;2023-07-02T03:35:48;15.93;;;4.47;;
68216;SDS011;55037;52.354;4.992;2023-07-02T03:38:18;18.40;;;5.32;;
68216;SDS011;55037;52.354;4.992;2023-07-02T03:40:46;19.65;;;5.03;;
68216;SDS011;55037;52.354;4.992;2023-07-02T03:43:14;19.02;;;4.63;;
68216;SDS011;55037;52.354;4.992;2023-07-02T03:45:42;14.43;;;4.60;;
68216;SDS011;55037;52.354;4.992;2023-07-02T03:48:12;12.10;;;4.20;;
68216;SDS011;55037;52.354;4.992;2023-07-02T03:50:40;14.73;;;4.05;;
68216;SDS011;55037;52.354;4.992;2023-07-02T03:53:07;16.58;;;4.40;;
68216;SDS011;55037;52.354;4.992;2023-07-02T03:55:35;13.90;;;4.13;;
68216;SDS011;55037;52.354;4.992;2023-07-02T03:58:03;17.30;;;5.10;;
68216;SDS011;55037;52.354;4.992;2023-07-02T04:00:30;16.43;;;4.73;;
68216;SDS011;55037;52.354;4.992;2023-07-02T04:02:58;18.83;;;5.13;;
68216;SDS011;55037;52.354;4.992;2023-07-02T04:05:25;20.45;;;6.53;;
68216;SDS011;55037;52.354;4.992;2023-07-02T04:07:53;16.02;;;4.95;;
68216;SDS011;55037;52.354;4.992;2023-07-02T04:10:21;16.58;;;4.32;;
68216;SDS011;55037;52.354;4.992;2023-07-02T04:12:48;15.40;;;5.27;;
68216;SDS011;55037;52.354;4.992;2023-07-02T04:15:16;13.52;;;4.63;;
68216;SDS011;55037;52.354;4.992;2023-07-02T04:17:43;13.65;;;4.20;;
68216;SDS011;55037;52.354;4.992;2023-07-02T04:20:11;14.80;;;4.03;;
68216;SDS011;55037;52.354;4.992;2023-07-02T04:22:39;19.05;;;5.03;;
68216;SDS011;55037;52.354;4.992;2023-07-02T04:25:06;10.10;;;4.07;;
68216;SDS011;55037;52.354;4.992;2023-07-02T04:27:54;14.55;;;4.40;;
68216;SDS011;55037;52.354;4.992;2023-07-02T04:30:24;17.90;;;4.80;;
68216;SDS011;55037;52.354;4.992;2023-07-02T04:32:53;15.27;;;5.13;;
68216;SDS011;55037;52.354;4.992;2023-07-02T04:35:20;20.80;;;5.15;;
68216;SDS011;55037;52.354;4.992;2023-07-02T04:37:48;16.43;;;3.87;;
68216;SDS011;55037;52.354;4.992;2023-07-02T04:40:17;17.15;;;5.13;;
68216;SDS011;55037;52.354;4.992;2023-07-02T04:42:44;14.60;;;4.78;;
68216;SDS011;55037;52.354;4.992;2023-07-02T04:45:14;11.15;;;4.05;;
68216;SDS011;55037;52.354;4.992;2023-07-02T04:47:44;13.23;;;4.75;;
68216;SDS011;55037;52.354;4.992;2023-07-02T04:50:12;17.43;;;4.70;;
68216;SDS011;55037;52.354;4.992;2023-07-02T04:52:40;16.55;;;4.43;;
68216;SDS011;55037;52.354;4.992;2023-07-02T04:55:08;16.15;;;4.95;;
68216;SDS011;55037;52.354;4.992;2023-07-02T04:57:36;18.48;;;5.05;;
68216;SDS011;55037;52.354;4.992;2023-07-02T05:00:04;12.77;;;4.03;;
68216;SDS011;55037;52.354;4.992;2023-07-02T05:02:35;14.47;;;4.73;;
68216;SDS011;55037;52.354;4.992;2023-07-02T05:05:03;10.52;;;4.03;;
68216;SDS011;55037;52.354;4.992;2023-07-02T05:07:31;18.27;;;4.53;;
68216;SDS011;55037;52.354;4.992;2023-07-02T05:09:59;18.05;;;4.32;;
68216;SDS011;55037;52.354;4.992;2023-07-02T05:12:26;15.73;;;4.70;;
68216;SDS011;55037;52.354;4.992;2023-07-02T05:14:54;11.40;;;3.93;;
68216;SDS011;55037;52.354;4.992;2023-07-02T05:17:22;19.38;;;4.45;;
68216;SDS011;55037;52.354;4.992;2023-07-02T05:19:49;13.02;;;4.22;;
68216;SDS011;55037;52.354;4.992;2023-07-02T05:22:17;11.63;;;3.28;;
68216;SDS011;55037;52.354;4.992;2023-07-02T05:24:46;11.23;;;3.72;;
68216;SDS011;55037;52.354;4.992;2023-07-02T05:27:13;14.93;;;4.57;;
68216;SDS011;55037;52.354;4.992;2023-07-02T05:29:41;14.43;;;4.28;;
68216;SDS011;55037;52.354;4.992;2023-07-02T05:32:09;15.38;;;4.18;;
68216;SDS011;55037;52.354;4.992;2023-07-02T05:34:37;12.88;;;4.43;;
68216;SDS011;55037;52.354;4.992;2023-07-02T05:37:05;10.52;;;3.80;;
68216;SDS011;55037;52.354;4.992;2023-07-02T05:39:35;13.47;;;4.33;;
68216;SDS011;55037;52.354;4.992;2023-07-02T05:42:03;10.90;;;3.67;;
68216;SDS011;55037;52.354;4.992;2023-07-02T05:44:31;14.50;;;3.40;;
68216;SDS011;55037;52.354;4.992;2023-07-02T05:46:59;14.32;;;4.45;;
68216;SDS011;55037;52.354;4.992;2023-07-02T05:49:26;14.98;;;3.45;;
68216;SDS011;55037;52.354;4.992;2023-07-02T05:51:54;15.57;;;4.77;;
68216;SDS011;55037;52.354;4.992;2023-07-02T05:54:22;11.18;;;3.45;;
68216;SDS011;55037;52.354;4.992;2023-07-02T05:56:49;12.45;;;4.15;;
68216;SDS011;55037;52.354;4.992;2023-07-02T05:59:17;19.00;;;4.88;;
68216;SDS011;55037;52.354;4.992;2023-07-02T06:01:46;9.85;;;3.72;;
68216;SDS011;55037;52.354;4.992;2023-07-02T06:04:13;14.07;;;3.87;;
68216;SDS011;55037;52.354;4.992;2023-07-02T06:06:42;9.27;;;3.25;;
68216;SDS011;55037;52.354;4.992;2023-07-02T06:09:09;14.07;;;4.53;;
68216;SDS011;55037;52.354;4.992;2023-07-02T06:11:37;15.50;;;4.18;;
68216;SDS011;55037;52.354;4.992;2023-07-02T06:14:05;10.70;;;3.67;;
68216;SDS011;55037;52.354;4.992;2023-07-02T06:16:33;17.93;;;4.17;;
68216;SDS011;55037;52.354;4.992;2023-07-02T06:19:01;10.77;;;3.78;;
68216;SDS011;55037;52.354;4.992;2023-07-02T06:21:28;18.30;;;4.25;;
68216;SDS011;55037;52.354;4.992;2023-07-02T06:23:57;15.02;;;4.00;;
68216;SDS011;55037;52.354;4.992;2023-07-02T06:26:26;11.65;;;3.30;;
68216;SDS011;55037;52.354;4.992;2023-07-02T06:28:53;15.90;;;4.27;;
68216;SDS011;55037;52.354;4.992;2023-07-02T06:31:21;11.45;;;3.58;;
68216;SDS011;55037;52.354;4.992;2023-07-02T06:33:51;10.52;;;3.60;;
68216;SDS011;55037;52.354;4.992;2023-07-02T06:36:19;13.68;;;3.80;;
68216;SDS011;55037;52.354;4.992;2023-07-02T06:38:46;11.02;;;3.45;;
68216;SDS011;55037;52.354;4.992;2023-07-02T06:41:14;12.17;;;3.70;;
68216;SDS011;55037;52.354;4.992;2023-07-02T06:43:42;10.00;;;4.05;;
68216;SDS011;55037;52.354;4.992;2023-07-02T06:46:11;13.68;;;3.90;;
68216;SDS011;55037;52.354;4.992;2023-07-02T06:48:40;16.95;;;3.95;;
68216;SDS011;55037;52.354;4.992;2023-07-02T06:51:08;12.45;;;3.88;;
68216;SDS011;55037;52.354;4.992;2023-07-02T06:53:36;11.33;;;3.03;;
68216;SDS011;55037;52.354;4.992;2023-07-02T06:56:04;14.55;;;3.83;;
68216;SDS011;55037;52.354;4.992;2023-07-02T06:58:32;11.85;;;4.30;;
68216;SDS011;55037;52.354;4.992;2023-07-02T07:00:59;10.18;;;3.67;;
68216;SDS011;55037;52.354;4.992;2023-07-02T07:03:27;13.07;;;3.30;;
68216;SDS011;55037;52.354;4.992;2023-07-02T07:05:55;11.00;;;3.93;;
68216;SDS011;55037;52.354;4.992;2023-07-02T07:08:23;11.65;;;3.90;;
68216;SDS011;55037;52.354;4.992;2023-07-02T07:10:51;15.27;;;3.97;;
68216;SDS011;55037;52.354;4.992;2023-07-02T07:13:19;8.77;;;2.95;;
68216;SDS011;55037;52.354;4.992;2023-07-02T07:15:46;12.95;;;4.05;;
68216;SDS011;55037;52.354;4.992;2023-07-02T07:18:14;11.63;;;3.30;;
68216;SDS011;55037;52.354;4.992;2023-07-02T07:20:42;9.30;;;3.10;;
68216;SDS011;55037;52.354;4.992;2023-07-02T07:23:10;8.90;;;3.05;;
68216;SDS011;55037;52.354;4.992;2023-07-02T07:25:37;12.23;;;4.03;;
68216;SDS011;55037;52.354;4.992;2023-07-02T07:28:05;11.82;;;4.15;;
68216;SDS011;55037;52.354;4.992;2023-07-02T07:30:32;16.00;;;4.30;;
68216;SDS011;55037;52.354;4.992;2023-07-02T07:33:00;14.80;;;3.88;;
68216;SDS011;55037;52.354;4.992;2023-07-02T07:35:28;13.60;;;4.30;;
68216;SDS011;55037;52.354;4.992;2023-07-02T07:37:56;10.55;;;3.70;;
68216;SDS011;55037;52.354;4.992;2023-07-02T07:40:23;12.80;;;4.75;;
68216;SDS011;55037;52.354;4.992;2023-07-02T07:42:51;13.13;;;4.13;;
68216;SDS011;55037;52.354;4.992;2023-07-02T07:45:19;11.05;;;4.10;;
68216;SDS011;55037;52.354;4.992;2023-07-02T07:47:46;10.35;;;3.47;;
68216;SDS011;55037;52.354;4.992;2023-07-02T07:50:14;12.80;;;4.07;;
68216;SDS011;55037;52.354;4.992;2023-07-02T07:52:42;16.85;;;4.13;;
68216;SDS011;55037;52.354;4.992;2023-07-02T07:55:10;12.03;;;4.07;;
68216;SDS011;55037;52.354;4.992;2023-07-02T07:57:37;18.50;;;4.63;;
68216;SDS011;55037;52.354;4.992;2023-07-02T08:00:05;14.40;;;4.22;;
68216;SDS011;55037;52.354;4.992;2023-07-02T08:02:45;10.80;;;4.70;;
68216;SDS011;55037;52.354;4.992;2023-07-02T08:05:16;13.50;;;4.40;;
68216;SDS011;55037;52.354;4.992;2023-07-02T08:07:44;13.13;;;3.83;;
68216;SDS011;55037;52.354;4.992;2023-07-02T08:10:11;11.77;;;3.72;;
68216;SDS011;55037;52.354;4.992;2023-07-02T08:12:39;13.10;;;3.60;;
68216;SDS011;55037;52.354;4.992;2023-07-02T08:15:07;14.90;;;4.50;;
68216;SDS011;55037;52.354;4.992;2023-07-02T08:17:34;14.65;;;4.18;;
68216;SDS011;55037;52.354;4.992;2023-07-02T08:20:03;9.87;;;3.50;;
68216;SDS011;55037;52.354;4.992;2023-07-02T08:22:31;12.80;;;3.58;;
68216;SDS011;55037;52.354;4.992;2023-07-02T08:24:59;9.45;;;3.58;;
68216;SDS011;55037;52.354;4.992;2023-07-02T08:27:26;11.65;;;3.92;;
68216;SDS011;55037;52.354;4.992;2023-07-02T08:29:54;11.50;;;4.05;;
68216;SDS011;55037;52.354;4.992;2023-07-02T08:32:21;9.97;;;3.33;;
68216;SDS011;55037;52.354;4.992;2023-07-02T08:34:49;13.52;;;3.50;;
68216;SDS011;55037;52.354;4.992;2023-07-02T08:37:20;7.75;;;3.17;;
68216;SDS011;55037;52.354;4.992;2023-07-02T08:39:50;8.60;;;3.60;;
68216;SDS011;55037;52.354;4.992;2023-07-02T08:42:18;10.40;;;3.47;;
68216;SDS011;55037;52.354;4.992;2023-07-02T08:44:46;10.93;;;2.80;;
68216;SDS011;55037;52.354;4.992;2023-07-02T08:47:15;12.75;;;3.85;;
68216;SDS011;55037;52.354;4.992;2023-07-02T08:49:43;13.82;;;4.28;;
68216;SDS011;55037;52.354;4.992;2023-07-02T08:52:11;11.13;;;2.95;;
68216;SDS011;55037;52.354;4.992;2023-07-02T08:54:39;8.35;;;3.03;;
68216;SDS011;55037;52.354;4.992;2023-07-02T08:57:08;11.43;;;3.50;;
68216;SDS011;55037;52.354;4.992;2023-07-02T08:59:36;12.18;;;3.85;;
68216;SDS011;55037;52.354;4.992;2023-07-02T09:02:04;11.10;;;3.92;;
68216;SDS011;55037;52.354;4.992;2023-07-02T09:04:32;11.35;;;3.70;;
68216;SDS011;55037;52.354;4.992;2023-07-02T09:07:03;12.50;;;4.18;;
68216;SDS011;55037;52.354;4.992;2023-07-02T09:09:31;10.37;;;3.70;;
68216;SDS011;55037;52.354;4.992;2023-07-02T09:11:59;11.43;;;3.28;;
68216;SDS011;55037;52.354;4.992;2023-07-02T09:14:28;12.43;;;3.42;;
68216;SDS011;55037;52.354;4.992;2023-07-02T09:19:30;13.00;;;4.25;;
68216;SDS011;55037;52.354;4.992;2023-07-02T09:21:59;9.17;;;3.40;;
68216;SDS011;55037;52.354;4.992;2023-07-02T09:24:30;9.05;;;2.97;;
68216;SDS011;55037;52.354;4.992;2023-07-02T09:27:00;10.10;;;3.88;;
68216;SDS011;55037;52.354;4.992;2023-07-02T09:29:29;7.25;;;3.15;;
68216;SDS011;55037;52.354;4.992;2023-07-02T09:31:59;11.15;;;3.80;;
68216;SDS011;55037;52.354;4.992;2023-07-02T09:34:31;8.83;;;3.27;;
68216;SDS011;55037;52.354;4.992;2023-07-02T09:37:00;8.70;;;3.63;;
68216;SDS011;55037;52.354;4.992;2023-07-02T09:39:32;9.70;;;3.53;;
68216;SDS011;55037;52.354;4.992;2023-07-02T09:42:02;10.82;;;4.00;;
68216;SDS011;55037;52.354;4.992;2023-07-02T09:44:33;7.45;;;3.55;;
68216;SDS011;55037;52.354;4.992;2023-07-02T09:47:05;7.87;;;3.07;;
68216;SDS011;55037;52.354;4.992;2023-07-02T09:49:35;5.78;;;2.78;;
68216;SDS011;55037;52.354;4.992;2023-07-02T09:54:32;10.95;;;3.38;;
68216;SDS011;55037;52.354;4.992;2023-07-02T09:57:01;9.38;;;2.92;;
68216;SDS011;55037;52.354;4.992;2023-07-02T09:59:29;15.90;;;3.27;;
68216;SDS011;55037;52.354;4.992;2023-07-02T10:01:57;10.10;;;3.63;;
68216;SDS011;55037;52.354;4.992;2023-07-02T10:04:25;9.85;;;3.15;;
68216;SDS011;55037;52.354;4.992;2023-07-02T10:06:54;6.72;;;2.40;;
68216;SDS011;55037;52.354;4.992;2023-07-02T10:09:38;9.40;;;3.20;;
68216;SDS011;55037;52.354;4.992;2023-07-02T10:14:47;7.53;;;2.75;;
68216;SDS011;55037;52.354;4.992;2023-07-02T10:17:29;8.20;;;3.22;;
68216;SDS011;55037;52.354;4.992;2023-07-02T10:20:02;9.30;;;3.15;;
68216;SDS011;55037;52.354;4.992;2023-07-02T10:22:48;10.77;;;3.10;;
68216;SDS011;55037;52.354;4.992;2023-07-02T10:25:26;8.03;;;3.40;;
68216;SDS011;55037;52.354;4.992;2023-07-02T10:27:55;9.70;;;3.70;;
68216;SDS011;55037;52.354;4.992;2023-07-02T10:30:37;8.68;;;4.22;;
68216;SDS011;55037;52.354;4.992;2023-07-02T10:33:09;12.15;;;4.07;;
68216;SDS011;55037;52.354;4.992;2023-07-02T10:35:38;9.95;;;4.32;;
68216;SDS011;55037;52.354;4.992;2023-07-02T10:38:13;9.93;;;4.53;;
68216;SDS011;55037;52.354;4.992;2023-07-02T10:40:45;10.43;;;4.13;;
68216;SDS011;55037;52.354;4.992;2023-07-02T10:43:14;12.20;;;4.82;;
68216;SDS011;55037;52.354;4.992;2023-07-02T10:45:52;12.02;;;4.63;;
68216;SDS011;55037;52.354;4.992;2023-07-02T10:48:22;11.90;;;5.15;;
68216;SDS011;55037;52.354;4.992;2023-07-02T10:50:49;9.97;;;4.40;;
68216;SDS011;55037;52.354;4.992;2023-07-02T10:53:19;12.65;;;5.07;;
68216;SDS011;55037;52.354;4.992;2023-07-02T10:55:54;11.45;;;5.07;;
68216;SDS011;55037;52.354;4.992;2023-07-02T10:58:24;12.23;;;5.30;;
68216;SDS011;55037;52.354;4.992;2023-07-02T11:00:52;12.57;;;5.20;;
68216;SDS011;55037;52.354;4.992;2023-07-02T11:03:24;14.73;;;5.43;;
68216;SDS011;55037;52.354;4.992;2023-07-02T11:05:55;12.18;;;5.20;;
68216;SDS011;55037;52.354;4.992;2023-07-02T11:08:23;11.35;;;5.22;;
68216;SDS011;55037;52.354;4.992;2023-07-02T11:11:08;10.70;;;5.00;;
68216;SDS011;55037;52.354;4.992;2023-07-02T11:13:43;12.55;;;5.28;;
68216;SDS011;55037;52.354;4.992;2023-07-02T11:16:26;9.50;;;4.70;;
68216;SDS011;55037;52.354;4.992;2023-07-02T11:19:08;12.75;;;5.47;;
68216;SDS011;55037;52.354;4.992;2023-07-02T11:21:36;12.45;;;5.03;;
68216;SDS011;55037;52.354;4.992;2023-07-02T11:24:05;10.38;;;4.60;;
68216;SDS011;55037;52.354;4.992;2023-07-02T11:26:38;10.60;;;4.95;;
68216;SDS011;55037;52.354;4.992;2023-07-02T11:29:10;12.87;;;5.07;;
68216;SDS011;55037;52.354;4.992;2023-07-02T11:31:38;11.18;;;4.85;;
68216;SDS011;55037;52.354;4.992;2023-07-02T11:34:12;10.57;;;5.25;;
68216;SDS011;55037;52.354;4.992;2023-07-02T11:36:45;8.80;;;4.30;;
68216;SDS011;55037;52.354;4.992;2023-07-02T11:39:13;12.98;;;4.40;;
68216;SDS011;55037;52.354;4.992;2023-07-02T11:41:44;12.70;;;4.90;;
68216;SDS011;55037;52.354;4.992;2023-07-02T11:44:16;8.93;;;4.18;;
68216;SDS011;55037;52.354;4.992;2023-07-02T11:46:44;10.70;;;4.50;;
68216;SDS011;55037;52.354;4.992;2023-07-02T11:49:14;7.57;;;3.55;;
68216;SDS011;55037;52.354;4.992;2023-07-02T11:51:42;8.90;;;3.95;;
68216;SDS011;55037;52.354;4.992;2023-07-02T11:54:16;9.63;;;3.83;;
68216;SDS011;55037;52.354;4.992;2023-07-02T11:56:45;6.22;;;2.60;;
68216;SDS011;55037;52.354;4.992;2023-07-02T11:59:13;7.28;;;3.28;;
68216;SDS011;55037;52.354;4.992;2023-07-02T12:01:41;6.93;;;2.40;;
68216;SDS011;55037;52.354;4.992;2023-07-02T12:04:10;6.57;;;3.13;;
68216;SDS011;55037;52.354;4.992;2023-07-02T12:06:39;6.13;;;3.53;;
68216;SDS011;55037;52.354;4.992;2023-07-02T12:09:06;9.02;;;3.83;;
68216;SDS011;55037;52.354;4.992;2023-07-02T12:11:34;6.53;;;3.90;;
68216;SDS011;55037;52.354;4.992;2023-07-02T12:14:02;9.10;;;3.63;;
68216;SDS011;55037;52.354;4.992;2023-07-02T12:16:29;7.72;;;3.75;;
68216;SDS011;55037;52.354;4.992;2023-07-02T12:18:57;8.40;;;3.10;;
68216;SDS011;55037;52.354;4.992;2023-07-02T12:21:25;14.70;;;3.95;;
68216;SDS011;55037;52.354;4.992;2023-07-02T12:23:52;7.53;;;3.28;;
68216;SDS011;55037;52.354;4.992;2023-07-02T12:26:20;6.13;;;2.90;;
68216;SDS011;55037;52.354;4.992;2023-07-02T12:28:48;6.72;;;3.40;;
68216;SDS011;55037;52.354;4.992;2023-07-02T12:31:16;7.17;;;2.80;;
68216;SDS011;55037;52.354;4.992;2023-07-02T12:33:44;6.88;;;2.65;;
68216;SDS011;55037;52.354;4.992;2023-07-02T12:36:11;8.07;;;3.50;;
68216;SDS011;55037;52.354;4.992;2023-07-02T12:38:40;8.50;;;3.47;;
68216;SDS011;55037;52.354;4.992;2023-07-02T12:41:08;8.80;;;3.78;;
68216;SDS011;55037;52.354;4.992;2023-07-02T12:43:36;6.57;;;3.23;;
68216;SDS011;55037;52.354;4.992;2023-07-02T12:46:04;12.00;;;3.97;;
68216;SDS011;55037;52.354;4.992;2023-07-02T12:48:32;6.85;;;3.00;;
68216;SDS011;55037;52.354;4.992;2023-07-02T12:51:00;11.07;;;4.25;;
68216;SDS011;55037;52.354;4.992;2023-07-02T12:53:28;14.13;;;3.45;;
68216;SDS011;55037;52.354;4.992;2023-07-02T12:55:55;9.60;;;4.33;;
68216;SDS011;55037;52.354;4.992;2023-07-02T12:58:23;8.88;;;4.28;;
68216;SDS011;55037;52.354;4.992;2023-07-02T13:00:51;10.70;;;4.28;;
68216;SDS011;55037;52.354;4.992;2023-07-02T13:03:18;7.82;;;4.18;;
68216;SDS011;55037;52.354;4.992;2023-07-02T13:05:47;10.77;;;3.80;;
68216;SDS011;55037;52.354;4.992;2023-07-02T13:08:16;10.37;;;3.87;;
68216;SDS011;55037;52.354;4.992;2023-07-02T13:10:44;10.60;;;4.47;;
68216;SDS011;55037;52.354;4.992;2023-07-02T13:13:11;6.82;;;3.00;;
68216;SDS011;55037;52.354;4.992;2023-07-02T13:15:49;5.28;;;2.88;;
68216;SDS011;55037;52.354;4.992;2023-07-02T13:18:18;9.38;;;4.25;;
68216;SDS011;55037;52.354;4.992;2023-07-02T13:20:46;7.63;;;2.83;;
68216;SDS011;55037;52.354;4.992;2023-07-02T13:23:13;10.85;;;4.18;;
68216;SDS011;55037;52.354;4.992;2023-07-02T13:25:41;7.72;;;3.33;;
68216;SDS011;55037;52.354;4.992;2023-07-02T13:28:09;10.75;;;3.83;;
68216;SDS011;55037;52.354;4.992;2023-07-02T13:30:37;8.50;;;3.80;;
68216;SDS011;55037;52.354;4.992;2023-07-02T13:33:04;5.50;;;2.77;;
68216;SDS011;55037;52.354;4.992;2023-07-02T13:35:32;7.43;;;4.43;;
68216;SDS011;55037;52.354;4.992;2023-07-02T13:38:00;8.02;;;4.25;;
68216;SDS011;55037;52.354;4.992;2023-07-02T13:40:27;8.90;;;3.50;;
68216;SDS011;55037;52.354;4.992;2023-07-02T13:42:57;10.07;;;4.43;;
68216;SDS011;55037;52.354;4.992;2023-07-02T13:45:25;8.10;;;3.93;;
68216;SDS011;55037;52.354;4.992;2023-07-02T13:47:52;7.28;;;3.28;;
68216;SDS011;55037;52.354;4.992;2023-07-02T13:50:20;8.50;;;3.88;;
68216;SDS011;55037;52.354;4.992;2023-07-02T13:52:48;9.27;;;3.28;;
68216;SDS011;55037;52.354;4.992;2023-07-02T13:55:16;6.40;;;3.38;;
68216;SDS011;55037;52.354;4.992;2023-07-02T13:57:44;10.93;;;4.93;;
68216;SDS011;55037;52.354;4.992;2023-07-02T14:00:11;9.60;;;3.80;;
68216;SDS011;55037;52.354;4.992;2023-07-02T14:02:39;7.70;;;3.42;;
68216;SDS011;55037;52.354;4.992;2023-07-02T14:05:07;7.38;;;3.58;;
68216;SDS011;55037;52.354;4.992;2023-07-02T14:07:35;6.03;;;3.13;;
68216;SDS011;55037;52.354;4.992;2023-07-02T14:10:03;7.77;;;2.70;;
68216;SDS011;55037;52.354;4.992;2023-07-02T14:12:31;8.30;;;3.88;;
68216;SDS011;55037;52.354;4.992;2023-07-02T14:14:59;7.90;;;3.38;;
68216;SDS011;55037;52.354;4.992;2023-07-02T14:17:26;12.07;;;3.90;;
68216;SDS011;55037;52.354;4.992;2023-07-02T14:19:54;8.50;;;3.10;;
68216;SDS011;55037;52.354;4.992;2023-07-02T14:22:21;6.90;;;2.77;;
68216;SDS011;55037;52.354;4.992;2023-07-02T14:24:49;8.93;;;4.00;;
68216;SDS011;55037;52.354;4.992;2023-07-02T14:27:17;7.82;;;3.53;;
68216;SDS011;55037;52.354;4.992;2023-07-02T14:29:44;6.13;;;3.15;;
68216;SDS011;55037;52.354;4.992;2023-07-02T14:32:14;7.75;;;3.38;;
68216;SDS011;55037;52.354;4.992;2023-07-02T14:34:42;7.90;;;3.80;;
68216;SDS011;55037;52.354;4.992;2023-07-02T14:37:10;8.52;;;3.75;;
68216;SDS011;55037;52.354;4.992;2023-07-02T14:39:38;9.55;;;3.50;;
68216;SDS011;55037;52.354;4.992;2023-07-02T14:42:09;7.65;;;3.35;;
68216;SDS011;55037;52.354;4.992;2023-07-02T14:44:37;10.63;;;3.42;;
68216;SDS011;55037;52.354;4.992;2023-07-02T14:47:05;5.53;;;2.47;;
68216;SDS011;55037;52.354;4.992;2023-07-02T14:49:33;5.25;;;2.47;;
68216;SDS011;55037;52.354;4.992;2023-07-02T14:52:00;7.88;;;2.63;;
68216;SDS011;55037;52.354;4.992;2023-07-02T14:54:28;9.82;;;3.22;;